createdAt,value
2023-07-23T00:08:50.147Z,17.31
2023-07-23T00:18:54.330Z,17.31
2023-07-23T00:28:57.168Z,17.32
2023-07-23T00:39:01.374Z,17.29
2023-07-23T00:49:04.601Z,16.99
2023-07-23T00:59:09.167Z,15.87
2023-07-23T01:09:13.659Z,17.15
2023-07-23T01:19:19.101Z,16.38
2023-07-23T01:29:23.332Z,17.07
2023-07-23T01:39:26.842Z,16.30
2023-07-23T01:49:31.141Z,16.66
2023-07-23T01:59:34.047Z,17.02
2023-07-23T02:09:38.863Z,16.98
2023-07-23T02:19:41.763Z,16.81
2023-07-23T02:29:46.018Z,13.64
2023-07-23T02:39:48.903Z,16.37
2023-07-23T02:49:53.113Z,16.92
2023-07-23T02:59:56.001Z,16.69
2023-07-23T03:10:00.357Z,17.18
2023-07-23T03:20:04.916Z,17.05
2023-07-23T03:30:09.938Z,17.34
2023-07-23T03:40:13.525Z,17.40
2023-07-23T03:50:18.082Z,17.47
2023-07-23T04:00:22.372Z,17.49
2023-07-23T04:10:26.552Z,16.97
2023-07-23T04:20:31.026Z,17.68
2023-07-23T04:30:35.229Z,17.84
2023-07-23T04:40:38.539Z,17.75
2023-07-23T04:50:43.167Z,18.18
2023-07-23T05:00:46.062Z,18.44
2023-07-23T05:10:50.348Z,18.82
2023-07-23T05:20:53.294Z,19.10
2023-07-23T05:31:00.347Z,19.42
2023-07-23T05:41:03.326Z,19.99
2023-07-23T05:51:07.539Z,19.72
2023-07-23T06:01:10.515Z,19.46
2023-07-23T06:11:14.787Z,21.26
2023-07-23T06:21:18.971Z,22.19
2023-07-23T06:31:23.856Z,23.18
2023-07-23T06:41:28.976Z,23.15
2023-07-23T06:51:33.595Z,23.27
2023-07-23T07:01:36.905Z,21.57
2023-07-23T07:11:41.298Z,21.85
2023-07-23T07:21:44.216Z,21.86
2023-07-23T07:31:49.379Z,21.57
2023-07-23T07:41:54.512Z,20.97
2023-07-23T07:51:58.942Z,21.01
2023-07-23T08:02:02.770Z,20.67
2023-07-23T08:12:08.807Z,20.26
2023-07-23T08:22:12.633Z,20.05
2023-07-23T08:32:20.871Z,19.89
2023-07-23T08:43:02.029Z,19.24
2023-07-23T08:53:07.777Z,18.95
2023-07-23T09:03:12.301Z,19.24
2023-07-23T09:13:16.648Z,18.18
2023-07-23T09:23:19.980Z,18.38
2023-07-23T09:33:29.991Z,19.66
2023-07-23T09:43:36.253Z,19.27
2023-07-23T09:53:46.820Z,19.45
2023-07-23T10:03:50.921Z,18.84
2023-07-23T10:14:05.736Z,18.85
2023-07-23T10:24:12.348Z,20.57
2023-07-23T10:34:43.820Z,20.82
2023-07-23T10:44:49.421Z,18.01
2023-07-23T10:54:53.920Z,18.68
2023-07-23T11:04:58.445Z,19.72
2023-07-23T11:15:15.505Z,19.55
2023-07-23T11:25:18.872Z,19.44
2023-07-23T11:35:23.161Z,20.07
2023-07-23T11:45:28.725Z,19.96
2023-07-23T11:55:34.545Z,20.39
2023-07-23T12:05:40.827Z,20.65
2023-07-23T12:26:24.100Z,19.70
2023-07-23T12:36:43.613Z,21.44
2023-07-23T12:46:54.167Z,21.29
2023-07-23T12:57:02.727Z,22.48
2023-07-23T13:07:07.433Z,22.09
2023-07-23T13:17:14.750Z,22.19
2023-07-23T13:27:39.365Z,22.78
2023-07-23T13:37:46.842Z,21.50
2023-07-23T13:47:50.987Z,22.46
2023-07-23T13:58:15.047Z,22.45
2023-07-23T14:08:22.339Z,22.58
2023-07-23T14:18:27.816Z,24.06
2023-07-23T14:28:32.110Z,23.45
2023-07-23T14:38:38.402Z,22.47
2023-07-23T14:48:42.365Z,23.44
2023-07-23T14:58:48.097Z,22.22
2023-07-23T15:08:51.447Z,21.39
2023-07-23T15:18:56.595Z,22.13
2023-07-23T15:29:00.836Z,21.87
2023-07-23T15:39:12.715Z,21.80
2023-07-23T15:49:18.506Z,21.35
2023-07-23T15:59:22.753Z,21.49
2023-07-23T16:09:29.814Z,21.84
2023-07-23T16:19:52.473Z,21.55
2023-07-23T16:29:55.877Z,20.76
2023-07-23T16:40:00.819Z,21.69
2023-07-23T16:50:04.166Z,21.18
2023-07-23T17:00:10.600Z,21.75
2023-07-23T17:10:14.751Z,21.86
2023-07-23T17:20:19.106Z,21.83
2023-07-23T17:30:22.030Z,21.59
2023-07-23T17:40:28.434Z,21.42
2023-07-23T17:50:34.579Z,20.84
2023-07-23T18:00:39.567Z,21.33
2023-07-23T18:10:46.977Z,21.18
2023-07-23T18:20:51.770Z,19.86
2023-07-23T18:30:59.929Z,20.97
2023-07-23T18:41:05.736Z,20.65
2023-07-23T18:51:08.692Z,20.29
2023-07-23T19:01:13.480Z,20.31
2023-07-23T19:11:19.580Z,20.28
2023-07-23T19:21:25.223Z,19.86
2023-07-23T19:31:28.798Z,20.08
2023-07-23T19:41:35.025Z,19.93
2023-07-23T19:51:38.324Z,19.49
2023-07-23T20:01:43.491Z,19.50
2023-07-23T20:11:47.009Z,19.67
2023-07-23T20:21:51.330Z,19.53
2023-07-23T20:31:54.666Z,19.61
2023-07-23T20:41:59.797Z,17.74
2023-07-23T20:52:02.920Z,19.10
2023-07-23T21:02:08.049Z,19.11
2023-07-23T21:12:11.071Z,18.56
2023-07-23T21:22:15.528Z,19.33
2023-07-23T21:32:18.687Z,18.88
2023-07-23T21:42:23.092Z,19.33
2023-07-23T21:52:26.544Z,19.41
2023-07-23T22:02:31.778Z,19.42
2023-07-23T22:12:53.888Z,19.08
2023-07-23T22:22:58.230Z,17.86
2023-07-23T22:33:02.158Z,19.16
2023-07-23T22:43:06.429Z,18.24
2023-07-23T22:53:09.576Z,18.27
2023-07-23T23:03:15.129Z,17.71
2023-07-23T23:13:21.194Z,18.85
2023-07-23T23:23:27.892Z,17.83
2023-07-23T23:33:33.525Z,19.07
2023-07-23T23:43:38.204Z,17.96
2023-07-23T23:53:44.046Z,17.86
